DABC/CZL METAR and TAF weather

Enter ICAO airport designator
Station Type Date Time Source
DABC METAR 2020/08/15 10:00 UTC NOAA

DABC 151000Z 28006KT 240V320 9999 FEW040 BKN100 33/09 Q1019


Station Type Date Time Source
DABC Decoded METAR 2020/08/15 10:00 UTC NOAA

Constantine, Algeria (DABC) 36-17N 006-37E 694M
Aug 15, 2020 - 06:00 AM EDT / 2020.08.15 1000 UTC
Wind: from the W (280 degrees) at 7 MPH (6 KT) (direction variable):0
Visibility: greater than 7 mile(s):0
Sky conditions: mostly cloudy
Temperature: 91 F (33 C)
Dew Point: 48 F (9 C)
Relative Humidity: 22%
Pressure (altimeter): 30.09 in. Hg (1019 hPa)
ob: DABC 151000Z 28006KT 240V320 9999 FEW040 BKN100 33/09 Q1019
cycle: 10

Station Type Date Time Source
DABC TAF 2020/08/15 06:33 UTC NOAA

TAF DABC 150500Z 1506/1606 34008KT 9999 FEW033 SCT100 PROB30
TEMPO 1510/1518 06012KT FEW026CB

Example: see airport list